sim
Sign-in with your pilot id or email,
or register
Callsign
Passwort

Schedule Details

Flight Number: OEO4081
Departure: Rovaniemi Airport (EFRO) at 12:05
Arrival: Munich Airport (EDDM) at 15:35

Weather Information
Getting current METAR information for EFRO 192120Z AUTO 32005KT 280V340 CAVOK 03/M02 Q1013
Getting current METAR information for EDDM 192120Z 32002KT CAVOK 11/10 Q1018 NOSIG

Schedule Frequency

Route Map